Time;durP1;ratioP1;P1;durP2;ratioP2;P2;SDS_P1;SDS_P2;PMS_P1;PMS_P2;Temp;Humidity;BMP_temperature;BMP_pressure;BME280_temperature;BME280_humidity;BME280_pressure;Samples;Min_cycle;Max_cycle;Signal;HPM_P1;HPM_P2
2023/08/24 00:04:28;;;;;;;7.82;6.03;;;;;;;;;;10069923;28;20120;-76
2023/08/24 00:09:20;;;;;;;5.38;4.75;;;;;;;;;;10066386;28;20041;-73
2023/08/24 00:14:13;;;;;;;5.05;4.53;;;;;;;;;;10076419;28;20104;-72
2023/08/24 00:19:04;;;;;;;5.35;4.68;;;;;;;;;;10087374;28;20053;-73
2023/08/24 00:23:56;;;;;;;7.43;5.45;;;;;;;;;;10086924;28;20049;-74
2023/08/24 00:28:48;;;;;;;6.88;4.60;;;;;;;;;;10063282;28;20053;-79
2023/08/24 00:33:40;;;;;;;7.65;4.75;;;;;;;;;;10066732;28;20371;-76
2023/08/24 00:38:32;;;;;;;5.28;4.75;;;;;;;;;;10040417;28;20587;-75
2023/08/24 00:43:25;;;;;;;5.82;5.25;;;;;;;;;;10052959;28;20060;-75
2023/08/24 00:48:18;;;;;;;7.85;4.82;;;;;;;;;;10073366;28;20097;-76
2023/08/24 00:53:10;;;;;;;6.88;4.85;;;;;;;;;;10064702;28;20038;-76
2023/08/24 00:58:03;;;;;;;6.20;4.72;;;;;;;;;;10046419;28;20109;-73
2023/08/24 01:02:55;;;;;;;5.32;4.90;;;;;;;;;;10039801;28;20045;-75
2023/08/24 01:07:47;;;;;;;9.18;5.30;;;;;;;;;;10044730;28;20073;-75
2023/08/24 01:12:58;;;;;;;7.50;4.88;;;;;;;;;;10045088;28;20418;-77
2023/08/24 01:17:52;;;;;;;6.38;5.05;;;;;;;;;;10064861;28;20055;-75
2023/08/24 01:22:54;;;;;;;9.35;4.75;;;;;;;;;;10055940;28;20060;-75
2023/08/24 01:27:48;;;;;;;10.52;5.55;;;;;;;;;;10043780;28;20130;-75
2023/08/24 01:32:43;;;;;;;8.35;4.75;;;;;;;;;;10070964;28;20048;-75
2023/08/24 01:37:35;;;;;;;8.10;4.47;;;;;;;;;;10075096;28;20463;-74
2023/08/24 01:42:29;;;;;;;12.68;5.25;;;;;;;;;;10052464;28;20471;-76
2023/08/24 01:47:21;;;;;;;6.60;4.80;;;;;;;;;;10062954;28;20518;-75
2023/08/24 01:52:13;;;;;;;9.80;5.03;;;;;;;;;;10047201;28;20049;-75
2023/08/24 01:57:06;;;;;;;7.88;6.05;;;;;;;;;;10064045;28;20037;-73
2023/08/24 02:01:58;;;;;;;6.57;5.20;;;;;;;;;;10015616;28;20112;-75
2023/08/24 02:06:50;;;;;;;5.07;4.30;;;;;;;;;;10009576;28;20128;-73
2023/08/24 02:11:42;;;;;;;6.50;5.75;;;;;;;;;;10005315;28;20491;-73
2023/08/24 02:16:35;;;;;;;9.50;5.97;;;;;;;;;;10062460;28;20292;-75
2023/08/24 02:21:27;;;;;;;7.95;5.00;;;;;;;;;;10005422;28;20049;-74
2023/08/24 02:26:21;;;;;;;7.65;5.30;;;;;;;;;;10025272;28;20045;-74
2023/08/24 02:31:13;;;;;;;12.32;5.13;;;;;;;;;;10006039;28;20383;-74
2023/08/24 02:36:08;;;;;;;8.65;5.63;;;;;;;;;;10009299;28;20039;-74
2023/08/24 02:41:06;;;;;;;8.02;4.68;;;;;;;;;;9996930;28;20057;-76
2023/08/24 02:46:07;;;;;;;5.40;4.90;;;;;;;;;;10024794;28;20370;-75
2023/08/24 02:51:00;;;;;;;6.55;5.43;;;;;;;;;;10023830;28;20476;-75
2023/08/24 02:55:53;;;;;;;5.68;5.13;;;;;;;;;;10029649;28;20360;-73
2023/08/24 03:00:46;;;;;;;8.70;5.53;;;;;;;;;;10037110;28;20105;-73
2023/08/24 03:05:38;;;;;;;10.00;4.68;;;;;;;;;;10024455;28;20058;-75
2023/08/24 03:10:31;;;;;;;8.80;5.15;;;;;;;;;;10030858;28;20125;-75
2023/08/24 03:15:24;;;;;;;11.20;6.57;;;;;;;;;;10015296;28;20137;-75
2023/08/24 03:20:16;;;;;;;8.40;5.18;;;;;;;;;;10014114;28;20121;-74
2023/08/24 03:25:08;;;;;;;7.13;5.70;;;;;;;;;;9997764;28;20082;-76
2023/08/24 03:30:00;;;;;;;6.43;5.88;;;;;;;;;;10013703;28;20046;-76
2023/08/24 03:34:58;;;;;;;8.18;6.05;;;;;;;;;;10043376;28;20064;-75
2023/08/24 03:39:50;;;;;;;6.82;5.80;;;;;;;;;;10050538;28;20484;-76
2023/08/24 03:44:42;;;;;;;10.48;6.25;;;;;;;;;;10013606;28;20057;-76
2023/08/24 03:49:34;;;;;;;8.82;5.72;;;;;;;;;;10012452;28;20046;-76
2023/08/24 03:54:28;;;;;;;7.40;5.85;;;;;;;;;;10013407;28;20471;-76
2023/08/24 03:59:20;;;;;;;7.28;5.53;;;;;;;;;;10021875;28;20078;-75
2023/08/24 04:04:12;;;;;;;6.40;5.53;;;;;;;;;;10051502;28;20034;-75
2023/08/24 04:09:06;;;;;;;6.25;5.50;;;;;;;;;;10051552;28;20471;-75
2023/08/24 04:13:58;;;;;;;7.78;5.50;;;;;;;;;;10069061;28;20234;-76
2023/08/24 04:18:50;;;;;;;6.88;5.18;;;;;;;;;;10050885;28;20041;-76
2023/08/24 04:23:44;;;;;;;7.22;5.40;;;;;;;;;;10068462;28;20073;-75
2023/08/24 04:28:37;;;;;;;5.78;5.22;;;;;;;;;;10067695;28;20049;-75
2023/08/24 04:33:29;;;;;;;8.32;4.93;;;;;;;;;;10068360;28;20136;-75
2023/08/24 04:38:21;;;;;;;5.50;5.00;;;;;;;;;;10050442;28;20077;-75
2023/08/24 04:43:13;;;;;;;6.88;4.95;;;;;;;;;;10067998;28;20355;-75
2023/08/24 04:48:05;;;;;;;7.13;5.70;;;;;;;;;;10067197;28;20096;-73
2023/08/24 04:52:57;;;;;;;6.40;5.22;;;;;;;;;;10073080;28;20042;-73
2023/08/24 04:57:48;;;;;;;5.63;5.10;;;;;;;;;;10069575;28;20049;-73
2023/08/24 05:02:40;;;;;;;5.78;5.32;;;;;;;;;;10069377;28;20056;-74
2023/08/24 05:07:32;;;;;;;7.10;4.82;;;;;;;;;;10069082;28;20041;-73
2023/08/24 05:12:24;;;;;;;5.05;4.55;;;;;;;;;;10069244;28;20115;-74
2023/08/24 05:17:16;;;;;;;7.18;4.78;;;;;;;;;;10068322;28;20041;-76
2023/08/24 05:22:08;;;;;;;5.18;4.65;;;;;;;;;;10067871;28;20041;-74
2023/08/24 05:27:00;;;;;;;6.03;4.88;;;;;;;;;;10068231;28;20455;-74
2023/08/24 05:31:51;;;;;;;7.90;4.45;;;;;;;;;;10067499;28;20088;-76
2023/08/24 05:36:43;;;;;;;4.45;4.05;;;;;;;;;;10065506;28;20041;-76
2023/08/24 05:41:36;;;;;;;5.18;4.45;;;;;;;;;;10065550;28;20041;-76
2023/08/24 05:46:28;;;;;;;8.18;5.03;;;;;;;;;;10065821;28;20093;-76
2023/08/24 05:51:20;;;;;;;6.57;4.97;;;;;;;;;;10064417;28;20494;-76
2023/08/24 05:56:12;;;;;;;8.35;4.85;;;;;;;;;;10065007;28;20366;-76
2023/08/24 06:01:04;;;;;;;5.25;4.57;;;;;;;;;;10064613;28;20164;-76
2023/08/24 06:06:02;;;;;;;6.47;4.65;;;;;;;;;;10065280;28;20486;-76
2023/08/24 06:10:54;;;;;;;14.93;6.70;;;;;;;;;;10065371;28;20049;-76
2023/08/24 06:15:45;;;;;;;8.43;5.57;;;;;;;;;;10064881;28;20042;-76
2023/08/24 06:20:37;;;;;;;5.72;5.05;;;;;;;;;;10064868;28;20091;-76
2023/08/24 06:25:29;;;;;;;12.80;5.78;;;;;;;;;;10063687;28;20055;-74
2023/08/24 06:30:21;;;;;;;8.68;5.28;;;;;;;;;;10063876;28;20084;-75
2023/08/24 06:35:15;;;;;;;9.90;5.57;;;;;;;;;;10064040;28;20046;-76
2023/08/24 06:40:08;;;;;;;6.05;5.32;;;;;;;;;;10063768;28;20100;-75
2023/08/24 06:45:00;;;;;;;11.65;5.43;;;;;;;;;;10062633;28;20076;-76
2023/08/24 06:49:52;;;;;;;7.05;5.10;;;;;;;;;;10063303;28;20077;-76
2023/08/24 06:54:44;;;;;;;12.82;5.53;;;;;;;;;;10044627;28;20195;-76
2023/08/24 06:59:36;;;;;;;9.38;5.80;;;;;;;;;;10051221;28;20116;-76
2023/08/24 07:04:28;;;;;;;8.68;4.95;;;;;;;;;;10023501;28;20061;-75
2023/08/24 07:09:20;;;;;;;6.05;5.15;;;;;;;;;;10024669;28;20046;-76
2023/08/24 07:14:12;;;;;;;6.25;4.50;;;;;;;;;;10005972;28;20046;-75
2023/08/24 07:19:05;;;;;;;9.70;5.18;;;;;;;;;;10024452;28;20101;-76
2023/08/24 07:23:57;;;;;;;10.60;5.25;;;;;;;;;;10023993;28;20077;-76
2023/08/24 07:28:49;;;;;;;8.95;5.40;;;;;;;;;;10023588;28;20082;-77
2023/08/24 07:33:43;;;;;;;10.40;6.38;;;;;;;;;;10021629;28;20076;-77
2023/08/24 07:38:35;;;;;;;10.55;7.13;;;;;;;;;;10022611;28;20054;-76
2023/08/24 07:43:27;;;;;;;13.25;6.65;;;;;;;;;;10023388;28;20092;-75
2023/08/24 07:48:19;;;;;;;10.63;6.97;;;;;;;;;;10022442;28;20046;-75
2023/08/24 07:53:11;;;;;;;9.63;6.40;;;;;;;;;;10022884;28;20050;-75
2023/08/24 07:58:03;;;;;;;13.95;5.78;;;;;;;;;;10027842;28;20034;-77
2023/08/24 08:02:56;;;;;;;10.70;6.25;;;;;;;;;;10030253;28;20049;-75
2023/08/24 08:07:48;;;;;;;8.43;4.95;;;;;;;;;;10028607;28;20093;-77
2023/08/24 08:12:40;;;;;;;7.95;5.75;;;;;;;;;;10029403;28;20041;-77
2023/08/24 08:17:33;;;;;;;12.38;5.50;;;;;;;;;;10030090;28;20042;-75
2023/08/24 08:22:25;;;;;;;8.48;5.85;;;;;;;;;;10032985;28;20053;-75
2023/08/24 08:27:17;;;;;;;9.75;6.85;;;;;;;;;;10028803;28;20169;-74
2023/08/24 08:32:11;;;;;;;7.18;6.40;;;;;;;;;;10028358;28;20429;-76
2023/08/24 08:37:03;;;;;;;15.40;8.60;;;;;;;;;;10027633;28;20042;-77
2023/08/24 08:41:55;;;;;;;8.50;6.50;;;;;;;;;;10027604;28;20085;-76
2023/08/24 08:46:47;;;;;;;8.07;6.15;;;;;;;;;;10025809;28;20050;-77
2023/08/24 08:51:39;;;;;;;11.50;7.25;;;;;;;;;;10028662;28;20042;-76
2023/08/24 08:56:34;;;;;;;8.80;6.22;;;;;;;;;;10026857;28;20076;-74
2023/08/24 09:01:27;;;;;;;11.57;6.90;;;;;;;;;;10054204;28;20696;-74
2023/08/24 09:06:19;;;;;;;11.20;7.30;;;;;;;;;;10026956;28;20061;-76
2023/08/24 09:11:11;;;;;;;8.38;7.05;;;;;;;;;;10026728;28;20503;-76
2023/08/24 09:16:07;;;;;;;12.32;7.55;;;;;;;;;;10027356;28;20460;-72
2023/08/24 09:20:59;;;;;;;20.38;6.32;;;;;;;;;;10027428;28;20133;-76
2023/08/24 09:25:51;;;;;;;14.10;6.35;;;;;;;;;;10026647;28;20042;-77
2023/08/24 09:30:45;;;;;;;17.88;7.10;;;;;;;;;;10026522;28;20129;-74
2023/08/24 09:35:37;;;;;;;13.65;6.80;;;;;;;;;;10017593;28;20131;-75
2023/08/24 09:40:29;;;;;;;12.23;6.90;;;;;;;;;;9980255;28;20047;-74
2023/08/24 09:45:21;;;;;;;13.32;6.18;;;;;;;;;;9984579;28;20058;-75
2023/08/24 09:50:14;;;;;;;8.90;5.85;;;;;;;;;;9982148;28;20050;-75
2023/08/24 09:55:07;;;;;;;11.82;7.20;;;;;;;;;;9995448;28;20084;-75
2023/08/24 09:59:59;;;;;;;16.65;6.75;;;;;;;;;;10075256;28;20436;-76
2023/08/24 10:04:52;;;;;;;10.88;6.55;;;;;;;;;;10048251;28;20369;-77
2023/08/24 10:09:57;;;;;;;11.98;6.60;;;;;;;;;;10064463;28;20137;-75
2023/08/24 10:14:59;;;;;;;7.70;5.85;;;;;;;;;;10070577;28;20352;-73
2023/08/24 10:19:54;;;;;;;6.43;5.80;;;;;;;;;;10103867;28;20041;-74
2023/08/24 10:24:47;;;;;;;11.90;5.70;;;;;;;;;;10077491;28;20060;-73
2023/08/24 10:29:39;;;;;;;11.45;5.78;;;;;;;;;;10064772;28;20049;-75
2023/08/24 10:34:31;;;;;;;7.40;5.25;;;;;;;;;;10065130;28;20061;-73
2023/08/24 10:39:29;;;;;;;8.23;5.55;;;;;;;;;;10086040;28;20041;-76
2023/08/24 10:44:24;;;;;;;8.70;5.43;;;;;;;;;;10104847;28;20471;-76
2023/08/24 10:49:19;;;;;;;6.45;5.38;;;;;;;;;;10060882;28;20053;-77
2023/08/24 10:54:11;;;;;;;10.93;5.55;;;;;;;;;;10063660;28;20527;-78
2023/08/24 10:59:16;;;;;;;13.75;5.43;;;;;;;;;;10063048;28;20193;-76
2023/08/24 11:04:10;;;;;;;5.93;5.30;;;;;;;;;;10064335;28;20045;-78
2023/08/24 11:09:14;;;;;;;10.80;5.00;;;;;;;;;;10064220;28;20088;-78
2023/08/24 11:14:17;;;;;;;8.77;4.50;;;;;;;;;;10064462;28;20050;-78
2023/08/24 11:19:11;;;;;;;7.78;4.15;;;;;;;;;;10063679;28;20041;-76
2023/08/24 11:24:03;;;;;;;6.47;4.32;;;;;;;;;;10064054;28;20076;-78
2023/08/24 11:28:57;;;;;;;8.70;4.88;;;;;;;;;;10066497;28;20038;-77
2023/08/24 11:33:55;;;;;;;8.90;4.75;;;;;;;;;;10071667;28;20441;-77
2023/08/24 11:38:47;;;;;;;6.90;4.72;;;;;;;;;;10040189;28;20480;-77
2023/08/24 11:43:39;;;;;;;4.95;4.10;;;;;;;;;;10031856;28;20101;-76
2023/08/24 11:48:31;;;;;;;7.82;5.35;;;;;;;;;;10032877;28;20310;-75
2023/08/24 11:53:24;;;;;;;6.38;4.22;;;;;;;;;;10008210;28;20567;-78
2023/08/24 11:58:16;;;;;;;4.63;4.05;;;;;;;;;;10025144;28;20432;-78
2023/08/24 12:03:08;;;;;;;8.00;5.10;;;;;;;;;;9986543;28;20047;-77
2023/08/24 12:08:00;;;;;;;10.63;5.65;;;;;;;;;;9997491;28;20553;-78
2023/08/24 12:13:06;;;;;;;10.20;4.07;;;;;;;;;;9987000;28;20133;-75
2023/08/24 12:18:10;;;;;;;8.80;5.22;;;;;;;;;;10009608;28;20042;-74
2023/08/24 12:23:02;;;;;;;6.00;4.20;;;;;;;;;;9992447;28;20101;-74
2023/08/24 12:28:11;;;;;;;6.30;3.92;;;;;;;;;;9990308;28;20085;-74
2023/08/24 12:33:04;;;;;;;6.35;4.93;;;;;;;;;;10011696;28;20082;-73
2023/08/24 12:37:55;;;;;;;9.38;3.33;;;;;;;;;;10001625;28;20038;-74
2023/08/24 12:42:47;;;;;;;4.30;3.90;;;;;;;;;;9989269;28;20066;-75
2023/08/24 12:47:40;;;;;;;8.45;4.00;;;;;;;;;;9989860;28;20039;-74
2023/08/24 12:52:32;;;;;;;10.02;3.35;;;;;;;;;;9989821;28;20054;-73
2023/08/24 12:57:24;;;;;;;5.38;3.05;;;;;;;;;;9989289;28;20073;-74
2023/08/24 13:02:16;;;;;;;4.28;3.58;;;;;;;;;;10022617;28;20050;-74
2023/08/24 13:07:28;;;;;;;9.80;4.22;;;;;;;;;;10028550;28;20041;-75
2023/08/24 13:12:19;;;;;;;4.20;3.80;;;;;;;;;;10028772;28;20046;-74
2023/08/24 13:17:11;;;;;;;5.63;3.80;;;;;;;;;;10028136;28;20045;-75
2023/08/24 13:22:03;;;;;;;5.70;4.35;;;;;;;;;;10028446;28;20057;-76
2023/08/24 13:26:55;;;;;;;7.93;3.65;;;;;;;;;;10026243;28;20054;-76
2023/08/24 13:31:47;;;;;;;7.60;3.50;;;;;;;;;;10024592;28;20363;-75
2023/08/24 13:36:39;;;;;;;8.30;4.18;;;;;;;;;;10025460;28;20464;-74
2023/08/24 13:41:31;;;;;;;7.10;3.78;;;;;;;;;;10011704;28;20103;-76
2023/08/24 13:46:23;;;;;;;7.07;3.70;;;;;;;;;;10026163;28;20073;-73
2023/08/24 13:51:15;;;;;;;12.00;3.97;;;;;;;;;;10024071;28;20041;-74
2023/08/24 13:56:07;;;;;;;5.43;3.80;;;;;;;;;;10024925;28;20042;-75
2023/08/24 14:00:59;;;;;;;3.83;3.38;;;;;;;;;;10024200;28;20058;-75
2023/08/24 14:05:57;;;;;;;5.93;3.75;;;;;;;;;;10024941;28;20050;-74
2023/08/24 14:10:49;;;;;;;5.53;3.17;;;;;;;;;;10024533;28;20253;-76
2023/08/24 14:15:42;;;;;;;6.93;3.60;;;;;;;;;;10024953;28;20052;-75
2023/08/24 14:20:37;;;;;;;9.85;4.35;;;;;;;;;;10024816;28;20084;-74
2023/08/24 14:25:29;;;;;;;8.93;4.45;;;;;;;;;;10024035;28;20041;-75
2023/08/24 14:30:21;;;;;;;5.22;3.45;;;;;;;;;;10024358;28;20469;-76
2023/08/24 14:35:13;;;;;;;6.20;3.97;;;;;;;;;;10024141;28;20050;-76
2023/08/24 14:40:06;;;;;;;8.30;3.78;;;;;;;;;;10023845;28;20137;-76
2023/08/24 14:44:58;;;;;;;4.95;3.38;;;;;;;;;;10023579;28;20053;-76
2023/08/24 14:49:50;;;;;;;8.38;3.33;;;;;;;;;;10023264;28;20052;-75
2023/08/24 14:54:41;;;;;;;7.13;3.78;;;;;;;;;;10029541;28;20060;-76
2023/08/24 14:59:33;;;;;;;11.98;3.95;;;;;;;;;;10020887;28;20420;-76
2023/08/24 15:04:26;;;;;;;7.93;3.40;;;;;;;;;;10022995;28;20136;-77
2023/08/24 15:09:18;;;;;;;7.95;4.00;;;;;;;;;;10021272;28;20062;-76
2023/08/24 15:14:10;;;;;;;6.63;3.28;;;;;;;;;;10023339;28;20050;-76
2023/08/24 15:19:02;;;;;;;8.27;3.53;;;;;;;;;;10022393;28;20081;-76
2023/08/24 15:23:54;;;;;;;6.10;3.30;;;;;;;;;;10023141;28;20054;-77
2023/08/24 15:29:11;;;;;;;4.95;3.45;;;;;;;;;;9999771;28;20053;-76
2023/08/24 15:34:04;;;;;;;7.60;3.35;;;;;;;;;;10022451;28;20162;-76
2023/08/24 15:38:56;;;;;;;4.95;3.00;;;;;;;;;;10021543;28;20383;-77
2023/08/24 15:43:47;;;;;;;7.60;3.40;;;;;;;;;;10047684;28;20399;-76
2023/08/24 15:48:39;;;;;;;6.40;3.58;;;;;;;;;;10037336;28;20383;-74
2023/08/24 15:53:32;;;;;;;8.38;3.60;;;;;;;;;;10040236;28;20053;-74
2023/08/24 15:58:24;;;;;;;3.97;3.45;;;;;;;;;;10022185;28;20067;-75
2023/08/24 16:03:16;;;;;;;6.07;3.25;;;;;;;;;;10017718;28;20479;-77
2023/08/24 16:08:07;;;;;;;6.35;3.40;;;;;;;;;;10022043;28;20488;-77
2023/08/24 16:12:59;;;;;;;8.77;3.50;;;;;;;;;;10004830;28;20056;-77
2023/08/24 16:17:51;;;;;;;9.50;3.40;;;;;;;;;;10027565;28;20109;-76
2023/08/24 16:22:44;;;;;;;8.30;3.13;;;;;;;;;;10029227;28;20049;-76
2023/08/24 16:27:36;;;;;;;5.47;3.10;;;;;;;;;;10028807;28;20045;-75
2023/08/24 16:32:28;;;;;;;4.97;3.15;;;;;;;;;;10028493;28;20085;-77
2023/08/24 16:37:20;;;;;;;7.38;2.80;;;;;;;;;;10029222;28;20144;-77
2023/08/24 16:42:12;;;;;;;6.47;2.67;;;;;;;;;;10028320;28;20144;-77
2023/08/24 16:47:04;;;;;;;8.00;3.33;;;;;;;;;;10028418;28;20074;-77
2023/08/24 16:51:56;;;;;;;8.98;2.72;;;;;;;;;;10028697;28;20377;-77
2023/08/24 16:56:48;;;;;;;7.22;2.78;;;;;;;;;;10027751;28;20060;-74
2023/08/24 17:01:40;;;;;;;13.77;3.08;;;;;;;;;;10027178;28;20057;-76
2023/08/24 17:06:32;;;;;;;5.28;2.83;;;;;;;;;;10027595;28;20057;-76
2023/08/24 17:11:27;;;;;;;8.35;3.13;;;;;;;;;;10027892;28;20041;-76
2023/08/24 17:16:20;;;;;;;5.85;3.58;;;;;;;;;;10027573;28;20109;-77
2023/08/24 17:21:12;;;;;;;14.85;5.32;;;;;;;;;;10010003;28;20539;-76
2023/08/24 17:26:04;;;;;;;16.63;13.27;;;;;;;;;;10026301;28;20061;-77
2023/08/24 17:30:56;;;;;;;9.45;3.90;;;;;;;;;;10026578;28;20045;-77
2023/08/24 17:35:48;;;;;;;8.20;3.50;;;;;;;;;;10026811;28;20089;-75
2023/08/24 17:40:40;;;;;;;9.85;4.57;;;;;;;;;;10026213;28;20108;-76
2023/08/24 17:45:32;;;;;;;15.35;7.93;;;;;;;;;;10026650;28;20046;-77
2023/08/24 17:50:24;;;;;;;11.23;7.15;;;;;;;;;;10025479;28;20084;-75
2023/08/24 17:55:16;;;;;;;10.20;6.50;;;;;;;;;;10025233;28;20476;-75
2023/08/24 18:00:09;;;;;;;6.45;3.70;;;;;;;;;;10025924;28;20062;-74
2023/08/24 18:05:03;;;;;;;5.20;3.20;;;;;;;;;;10025638;28;20041;-76
2023/08/24 18:09:55;;;;;;;8.45;4.28;;;;;;;;;;10025752;28;20093;-75
2023/08/24 18:14:47;;;;;;;7.18;3.65;;;;;;;;;;10025376;28;20070;-76
2023/08/24 18:19:39;;;;;;;4.82;4.25;;;;;;;;;;10024683;28;20042;-77
2023/08/24 18:24:31;;;;;;;13.50;4.38;;;;;;;;;;10024814;28;20077;-78
2023/08/24 18:29:24;;;;;;;8.40;3.65;;;;;;;;;;10023929;28;20129;-77
2023/08/24 18:34:16;;;;;;;6.45;4.57;;;;;;;;;;10024702;28;20054;-75
2023/08/24 18:39:08;;;;;;;6.97;3.90;;;;;;;;;;10023750;28;20045;-77
2023/08/24 18:43:59;;;;;;;8.95;4.32;;;;;;;;;;10023342;28;20042;-78
2023/08/24 18:48:51;;;;;;;4.15;3.75;;;;;;;;;;10020850;28;20141;-75
2023/08/24 18:53:43;;;;;;;6.25;3.60;;;;;;;;;;10021672;28;20364;-73
2023/08/24 18:58:35;;;;;;;7.30;3.95;;;;;;;;;;10021767;28;20372;-76
2023/08/24 19:03:29;;;;;;;10.55;4.45;;;;;;;;;;10022861;28;20053;-77
2023/08/24 19:08:22;;;;;;;5.28;3.95;;;;;;;;;;10021528;28;20429;-77
2023/08/24 19:13:14;;;;;;;7.20;4.20;;;;;;;;;;10028983;28;20058;-77
2023/08/24 19:18:07;;;;;;;6.18;4.28;;;;;;;;;;10025899;28;20092;-76
2023/08/24 19:22:59;;;;;;;7.32;4.97;;;;;;;;;;10052096;28;20045;-76
2023/08/24 19:27:51;;;;;;;6.88;4.35;;;;;;;;;;10022234;28;20042;-77
2023/08/24 19:32:43;;;;;;;6.88;4.60;;;;;;;;;;10012522;28;20046;-77
2023/08/24 19:37:35;;;;;;;5.80;4.20;;;;;;;;;;10008319;28;20104;-76
2023/08/24 19:42:29;;;;;;;9.77;4.93;;;;;;;;;;10018770;28;20142;-76
2023/08/24 19:47:21;;;;;;;7.80;4.82;;;;;;;;;;9996356;28;20042;-79
2023/08/24 19:52:13;;;;;;;5.60;4.60;;;;;;;;;;9989581;28;20049;-76
2023/08/24 19:57:07;;;;;;;6.25;5.53;;;;;;;;;;9990722;28;20445;-77
2023/08/24 20:01:59;;;;;;;14.15;6.43;;;;;;;;;;9990992;28;20057;-76
2023/08/24 20:06:52;;;;;;;5.82;5.20;;;;;;;;;;9990656;28;20369;-77
2023/08/24 20:11:44;;;;;;;11.32;5.13;;;;;;;;;;9990829;28;20105;-78
2023/08/24 20:16:36;;;;;;;7.30;4.32;;;;;;;;;;9990158;28;20057;-77
2023/08/24 20:21:29;;;;;;;8.70;5.20;;;;;;;;;;9990560;28;20046;-77
2023/08/24 20:26:21;;;;;;;9.90;4.95;;;;;;;;;;9987647;28;20055;-76
2023/08/24 20:31:13;;;;;;;8.57;5.30;;;;;;;;;;9989017;28;20476;-77
2023/08/24 20:36:05;;;;;;;6.60;5.20;;;;;;;;;;9989413;28;20050;-77
2023/08/24 20:41:00;;;;;;;8.02;4.80;;;;;;;;;;10015613;28;20125;-76
2023/08/24 20:45:52;;;;;;;10.60;4.80;;;;;;;;;;10028140;28;20052;-77
2023/08/24 20:50:45;;;;;;;8.90;5.63;;;;;;;;;;10028185;28;20085;-76
2023/08/24 20:55:36;;;;;;;6.72;4.28;;;;;;;;;;10027799;28;20207;-74
2023/08/24 21:00:28;;;;;;;9.60;5.65;;;;;;;;;;10027281;28;20758;-78
2023/08/24 21:05:20;;;;;;;11.57;4.88;;;;;;;;;;10027067;28;20054;-76
2023/08/24 21:10:12;;;;;;;8.02;4.65;;;;;;;;;;10027813;28;20116;-76
2023/08/24 21:15:05;;;;;;;5.00;4.50;;;;;;;;;;10033771;28;20369;-76
2023/08/24 21:19:57;;;;;;;10.00;4.97;;;;;;;;;;10028706;28;20084;-77
2023/08/24 21:24:49;;;;;;;10.82;5.20;;;;;;;;;;10010314;28;20041;-76
2023/08/24 21:29:43;;;;;;;7.93;5.07;;;;;;;;;;10026333;28;20050;-76
2023/08/24 21:34:35;;;;;;;6.50;4.28;;;;;;;;;;10026745;28;20057;-76
2023/08/24 21:39:27;;;;;;;9.18;5.38;;;;;;;;;;10026844;28;20050;-75
2023/08/24 21:44:19;;;;;;;9.82;5.00;;;;;;;;;;10026745;28;20049;-77
2023/08/24 21:49:11;;;;;;;11.65;6.55;;;;;;;;;;10026304;28;20046;-77
2023/08/24 21:54:03;;;;;;;8.98;4.90;;;;;;;;;;10026614;28;20054;-75
2023/08/24 21:58:55;;;;;;;7.55;5.75;;;;;;;;;;10025359;28;20077;-74
2023/08/24 22:03:48;;;;;;;9.93;5.03;;;;;;;;;;10024900;28;20046;-76
2023/08/24 22:08:40;;;;;;;7.50;4.80;;;;;;;;;;10024622;28;20391;-76
2023/08/24 22:13:32;;;;;;;7.30;4.97;;;;;;;;;;10025029;28;20455;-77
2023/08/24 22:18:25;;;;;;;6.63;4.95;;;;;;;;;;10025182;28;20085;-76
2023/08/24 22:23:17;;;;;;;14.50;5.43;;;;;;;;;;10006884;28;20441;-76
2023/08/24 22:28:09;;;;;;;6.25;4.95;;;;;;;;;;10005514;28;20069;-76
2023/08/24 22:33:04;;;;;;;6.15;4.70;;;;;;;;;;10023493;28;20037;-77
2023/08/24 22:37:56;;;;;;;5.80;4.82;;;;;;;;;;10024312;28;20050;-78
2023/08/24 22:42:48;;;;;;;4.60;4.20;;;;;;;;;;10024042;28;20053;-77
2023/08/24 22:47:40;;;;;;;4.75;4.03;;;;;;;;;;10024034;28;20077;-77
2023/08/24 22:52:35;;;;;;;5.38;4.88;;;;;;;;;;10024486;28;20121;-77
2023/08/24 22:57:27;;;;;;;11.15;5.28;;;;;;;;;;10023596;28;20069;-76
2023/08/24 23:02:19;;;;;;;10.02;5.90;;;;;;;;;;10023902;28;20054;-75
2023/08/24 23:07:11;;;;;;;14.35;5.95;;;;;;;;;;10023488;28;20480;-77
2023/08/24 23:12:03;;;;;;;8.80;5.53;;;;;;;;;;10019135;28;20126;-75
2023/08/24 23:16:55;;;;;;;9.25;4.40;;;;;;;;;;10018534;28;20064;-74
2023/08/24 23:21:47;;;;;;;9.63;5.13;;;;;;;;;;10018557;28;20049;-76
2023/08/24 23:26:39;;;;;;;6.05;4.70;;;;;;;;;;10010517;28;20061;-75
2023/08/24 23:31:31;;;;;;;8.43;4.90;;;;;;;;;;10029642;28;20132;-75
2023/08/24 23:36:24;;;;;;;5.55;4.95;;;;;;;;;;10029894;28;20058;-77
2023/08/24 23:41:16;;;;;;;7.72;5.03;;;;;;;;;;10024235;28;20061;-74
2023/08/24 23:46:08;;;;;;;6.97;4.82;;;;;;;;;;10024311;28;20464;-74
2023/08/24 23:51:00;;;;;;;13.52;5.78;;;;;;;;;;10029845;28;20046;-74
2023/08/24 23:55:52;;;;;;;9.23;5.82;;;;;;;;;;10028914;28;20050;-78
